Terminal Aerodrome Forecast
Issued by NWS Pittsburgh, PA

Current Version | Previous Version | Graphics & Text | Print | Product List | Glossary On
Versions: 1 2 3 4 5 6 7 8 9 10 11 12 13 14 15 16 17 18 19 20 21 22 23 24 25 26 27
489
FTUS41 KPBZ 201724
TAFPIT
TAF
KPIT 201724Z 2018/2124 08006KT P6SM BKN025
      TEMPO 2018/2020 BKN015
     FM210400 12008KT P6SM BKN090
     FM211600 15009KT P6SM -SHRA VCTS OVC045CB
     FM212300 16008KT P6SM -SHRA VCTS OVC025CB=

USA.gov is the U.S. government's official web portal to all federal, state and local government web resources and services.